ADDS METAR Data INFO
IDs: Format: Raw Decoded Include TAF

Data at: 2031 UTC 20 Jul 2017

METAR for:KJAX (Jacksonville Intl, FL, US)
Text:KJAX 201956Z 12008KT 10SM FEW040 BKN250 33/23 A3003 RMK AO2 SLP168 T03280228
Temperature: 32.8°C ( 91°F)
Dewpoint: 22.8°C ( 73°F) [RH = 56%]
Pressure (altimeter):30.03 inches Hg (1017.0 mb) [Sea level pressure: 1016.8 mb]
Winds:from the ESE (120 degrees) at 9 MPH (8 knots; 4.1 m/s)
Visibility:10 or more sm (16+ km)
Ceiling:25000 feet AGL
Clouds: few clouds at 4000 feet AGL, broken clouds at 25000 feet AGL

METAR for:KCRG (Jacksonville/Executi, FL, US)
Text:KCRG 201953Z 13007KT 10SM CLR 29/22 A3005 RMK AO2 SLP174 T02940222
Temperature: 29.4°C ( 85°F)
Dewpoint: 22.2°C ( 72°F) [RH = 65%]
Pressure (altimeter):30.05 inches Hg (1017.7 mb) [Sea level pressure: 1017.4 mb]
Winds:from the SE (130 degrees) at 8 MPH (7 knots; 3.6 m/s)
Visibility:10 or more sm (16+ km)
Ceiling:at least 12,000 feet AGL
Clouds:sky clear below 12,000 feet AGL

METAR for:KNIP (Jacksonville (NAS), FL, US)
Text:KNIP 201953Z 12009KT 10SM SCT045 SCT055 BKN250 31/24 A3005 RMK AO2 RAB1855E19 TSE45 SLP170 OCNL LTGICCG DSNT S CB DSNT S T1 SET P0000 T03060239 $
Temperature: 30.6°C ( 87°F)
Dewpoint: 23.9°C ( 75°F) [RH = 68%]
Pressure (altimeter):30.05 inches Hg (1017.7 mb) [Sea level pressure: 1017.0 mb]
Winds:from the ESE (120 degrees) at 10 MPH (9 knots; 4.6 m/s)
Visibility:10 or more sm (16+ km)
Ceiling:25000 feet AGL
Clouds: scattered clouds at 4500 feet AGL, scattered clouds at 5500 feet AGL, broken clouds at 25000 feet AGL
QC Flag:SOME DATA ABOVE MAY BE INACCURATE!!!"$" is an indication the sensor requires maintenance.

METAR for:KNRB (Mayport (NS), FL, US)
Text:KNRB 201952Z 12010KT 10SM FEW030 BKN250 31/21 A3005 RMK AO2 TSB10E11 SLP175 CB DSNT SW T2 SET T03110211
Temperature: 31.1°C ( 88°F)
Dewpoint: 21.1°C ( 70°F) [RH = 55%]
Pressure (altimeter):30.05 inches Hg (1017.7 mb) [Sea level pressure: 1017.5 mb]
Winds:from the ESE (120 degrees) at 12 MPH (10 knots; 5.1 m/s)
Visibility:10 or more sm (16+ km)
Ceiling:25000 feet AGL
Clouds: few clouds at 3000 feet AGL, broken clouds at 25000 feet AGL

METAR for:KFHB (Fernandina Beach Mun, FL, US)
Text:KFHB 202015Z AUTO 13009KT 10SM CLR 31/25 A3002 RMK AO1
Temperature: 31.0°C ( 88°F)
Dewpoint: 25.0°C ( 77°F) [RH = 71%]
Pressure (altimeter):30.02 inches Hg (1016.7 mb)
Winds:from the SE (130 degrees) at 10 MPH (9 knots; 4.6 m/s)
Visibility:10 or more sm (16+ km)
Ceiling:at least 12,000 feet AGL
Clouds:sky clear below 12,000 feet AGL
QC Flag:automated observation with no human augmentation

METAR for:KVQQ (Jacksonville/Cecil A, FL, US)
Text:KVQQ 201950Z 07010KT 10SM SCT050 33/24 A3003
Temperature: 33.0°C ( 91°F)
Dewpoint: 24.0°C ( 75°F) [RH = 59%]
Pressure (altimeter):30.03 inches Hg (1017.0 mb)
Winds:from the ENE (70 degrees) at 12 MPH (10 knots; 5.1 m/s)
Visibility:10 or more sm (16+ km)
Ceiling:at least 12,000 feet AGL
Clouds: scattered clouds at 5000 feet AGL